Time;durP1;ratioP1;P1;durP2;ratioP2;P2;SDS_P1;SDS_P2;PMS_P1;PMS_P2;Temp;Humidity;BMP_temperature;BMP_pressure;BME280_temperature;BME280_humidity;BME280_pressure;Samples;Min_cycle;Max_cycle;Signal;HPM_P1;HPM_P2
2021/07/09 00:01:43;;;;;;;2.05;1.85;;;19.60;84.90;;;;;;5104184;28;27398;-57
2021/07/09 00:04:28;;;;;;;3.42;1.90;;;19.60;84.70;;;;;;5103939;28;27433;-59
2021/07/09 00:07:13;;;;;;;5.32;2.15;;;19.60;85.10;;;;;;5071835;28;27423;-57
2021/07/09 00:09:58;;;;;;;3.92;2.20;;;19.50;84.90;;;;;;5103522;28;27395;-57
2021/07/09 00:12:43;;;;;;;2.50;1.88;;;19.60;85.00;;;;;;5104353;28;27343;-57
2021/07/09 00:15:27;;;;;;;4.00;2.42;;;19.50;85.00;;;;;;5085683;28;27340;-57
2021/07/09 00:18:12;;;;;;;5.40;1.85;;;19.50;84.90;;;;;;5104372;28;27328;-58
2021/07/09 00:20:56;;;;;;;4.65;1.83;;;19.50;84.90;;;;;;5089020;28;27329;-57
2021/07/09 00:23:42;;;;;;;2.80;1.92;;;19.50;85.00;;;;;;5104279;28;27397;-57
2021/07/09 00:26:28;;;;;;;5.63;1.95;;;19.50;85.00;;;;;;5104187;28;27382;-56
2021/07/09 00:29:12;;;;;;;5.43;1.80;;;19.50;85.00;;;;;;5103880;28;27411;-57
2021/07/09 00:31:57;;;;;;;2.28;1.85;;;19.50;85.20;;;;;;5085620;28;27407;-57
2021/07/09 00:34:41;;;;;;;3.40;2.03;;;19.50;85.30;;;;;;5104244;28;27416;-56
2021/07/09 00:37:26;;;;;;;5.82;2.17;;;19.50;85.20;;;;;;5104279;28;27390;-57
2021/07/09 00:40:11;;;;;;;3.45;2.00;;;19.50;85.30;;;;;;5100209;28;27394;-57
2021/07/09 00:42:56;;;;;;;5.38;2.15;;;19.40;85.40;;;;;;5102828;28;27413;-57
2021/07/09 00:45:40;;;;;;;2.78;2.50;;;19.40;85.50;;;;;;5104162;28;27386;-57
2021/07/09 00:48:28;;;;;;;5.13;2.25;;;19.40;85.50;;;;;;5104010;28;27508;-57
2021/07/09 00:51:13;;;;;;;5.82;2.00;;;19.40;86.30;;;;;;5104129;28;27347;-57
2021/07/09 00:53:58;;;;;;;3.28;2.13;;;19.40;85.50;;;;;;5103029;28;27336;-56
2021/07/09 00:56:43;;;;;;;7.00;2.30;;;19.40;85.60;;;;;;5103410;28;27574;-57
2021/07/09 00:59:28;;;;;;;3.00;1.85;;;19.40;85.70;;;;;;5102049;28;27344;-56
2021/07/09 01:02:12;;;;;;;3.95;2.30;;;19.40;85.60;;;;;;5103666;28;27420;-58
2021/07/09 01:04:57;;;;;;;6.07;2.30;;;19.40;85.70;;;;;;5103112;28;27344;-57
2021/07/09 01:07:41;;;;;;;6.30;2.05;;;19.40;85.60;;;;;;5102938;28;27367;-57
2021/07/09 01:10:26;;;;;;;3.60;1.75;;;19.30;85.70;;;;;;5103542;28;27433;-56
2021/07/09 01:13:11;;;;;;;6.57;2.17;;;19.30;85.80;;;;;;5103460;28;26994;-55
2021/07/09 01:15:55;;;;;;;3.30;1.90;;;19.30;85.80;;;;;;5102697;28;27400;-56
2021/07/09 01:18:40;;;;;;;3.83;2.13;;;19.30;85.90;;;;;;5071117;28;27900;-57
2021/07/09 01:21:24;;;;;;;3.85;2.00;;;19.30;85.90;;;;;;5103367;28;27423;-56
2021/07/09 01:24:10;;;;;;;2.75;1.88;;;19.30;85.80;;;;;;5102443;28;27482;-56
2021/07/09 01:26:55;;;;;;;1.60;1.45;;;19.30;85.90;;;;;;5071179;28;27396;-56
2021/07/09 01:29:39;;;;;;;2.67;1.70;;;19.30;85.90;;;;;;5099180;28;27499;-56
2021/07/09 01:32:24;;;;;;;2.38;1.92;;;19.30;86.30;;;;;;5102702;28;27336;-56
2021/07/09 01:35:09;;;;;;;3.95;1.50;;;19.30;85.90;;;;;;5103475;28;27449;-56
2021/07/09 01:37:55;;;;;;;2.63;1.70;;;19.30;85.70;;;;;;5099284;28;27340;-54
2021/07/09 01:40:40;;;;;;;3.42;1.75;;;19.30;85.70;;;;;;5102577;28;27356;-57
2021/07/09 01:43:25;;;;;;;4.90;2.10;;;19.30;85.70;;;;;;5103063;28;27382;-57
2021/07/09 01:46:09;;;;;;;5.22;2.13;;;19.30;85.60;;;;;;5103086;28;27455;-56
2021/07/09 01:48:54;;;;;;;2.28;1.75;;;19.30;85.60;;;;;;5103073;28;27415;-56
2021/07/09 01:51:39;;;;;;;3.47;1.83;;;19.30;85.60;;;;;;5102022;28;27423;-57
2021/07/09 01:54:23;;;;;;;5.93;1.73;;;19.20;85.60;;;;;;5102157;28;27527;-56
2021/07/09 01:57:09;;;;;;;4.97;1.80;;;19.20;86.40;;;;;;5102410;28;27473;-56
2021/07/09 01:59:55;;;;;;;9.10;2.15;;;19.20;85.70;;;;;;5099553;28;27323;-56
2021/07/09 02:02:40;;;;;;;8.57;1.70;;;19.20;85.80;;;;;;5101783;28;27351;-55
2021/07/09 02:05:25;;;;;;;6.57;1.77;;;19.20;85.50;;;;;;5102055;28;27325;-56
2021/07/09 02:08:09;;;;;;;7.07;2.20;;;19.20;85.50;;;;;;5102827;28;27408;-56
2021/07/09 02:10:54;;;;;;;7.57;2.63;;;19.20;85.40;;;;;;5104906;27;27407;-56
2021/07/09 02:13:38;;;;;;;5.25;3.13;;;19.20;85.50;;;;;;5106239;28;27492;-56
2021/07/09 02:16:23;;;;;;;6.55;2.60;;;19.20;85.60;;;;;;5102062;28;27431;-57
2021/07/09 02:19:08;;;;;;;7.50;2.63;;;19.10;85.60;;;;;;5106234;28;27415;-57
2021/07/09 02:21:53;;;;;;;7.65;2.10;;;19.10;85.70;;;;;;5106010;28;27405;-56
2021/07/09 02:24:41;;;;;;;7.10;2.13;;;19.10;85.70;;;;;;5087670;28;27469;-57
2021/07/09 02:27:25;;;;;;;4.60;1.88;;;19.10;85.90;;;;;;5106022;28;27369;-57
2021/07/09 02:30:12;;;;;;;2.65;2.30;;;19.10;85.90;;;;;;5106120;28;27339;-57
2021/07/09 02:32:57;;;;;;;4.70;2.50;;;19.10;85.90;;;;;;5105189;28;27324;-57
2021/07/09 02:35:42;;;;;;;3.17;2.35;;;19.00;85.90;;;;;;5073551;28;27379;-57
2021/07/09 02:38:26;;;;;;;2.38;1.83;;;19.10;86.00;;;;;;5106179;28;27485;-57
2021/07/09 02:41:11;;;;;;;3.50;2.03;;;19.00;85.90;;;;;;5105288;28;27574;-55
2021/07/09 02:43:56;;;;;;;3.47;2.20;;;19.00;85.90;;;;;;5101716;28;27426;-57
2021/07/09 02:46:40;;;;;;;2.88;1.80;;;19.00;85.90;;;;;;5105166;28;27366;-56
2021/07/09 02:49:25;;;;;;;4.72;2.20;;;19.00;85.70;;;;;;5087483;28;27386;-56
2021/07/09 02:52:11;;;;;;;3.10;1.98;;;19.00;85.80;;;;;;5105729;28;27402;-56
2021/07/09 02:54:56;;;;;;;4.65;2.20;;;19.00;85.80;;;;;;5105645;28;27273;-57
2021/07/09 02:57:41;;;;;;;4.00;1.95;;;19.00;85.70;;;;;;5104739;28;27394;-56
2021/07/09 03:00:26;;;;;;;3.80;1.80;;;19.00;85.70;;;;;;5106345;28;27395;-58
2021/07/09 03:03:12;;;;;;;2.13;1.92;;;19.00;85.60;;;;;;5106466;28;27334;-56
2021/07/09 03:05:57;;;;;;;4.55;2.08;;;19.00;85.70;;;;;;5106416;28;27377;-56
2021/07/09 03:08:41;;;;;;;5.45;2.17;;;19.00;85.90;;;;;;5106551;28;28082;-56
2021/07/09 03:11:25;;;;;;;2.38;2.00;;;19.00;85.70;;;;;;5106271;28;27534;-56
2021/07/09 03:14:10;;;;;;;3.70;1.70;;;18.90;85.70;;;;;;5105882;28;27425;-56
2021/07/09 03:16:54;;;;;;;2.17;1.98;;;18.90;85.60;;;;;;5106202;28;27395;-56
2021/07/09 03:19:40;;;;;;;6.15;2.10;;;18.90;85.50;;;;;;5106174;28;27936;-56
2021/07/09 03:22:24;;;;;;;7.03;2.70;;;18.90;85.60;;;;;;5104988;27;27536;-56
2021/07/09 03:25:10;;;;;;;3.20;2.20;;;18.90;85.50;;;;;;5106354;28;27487;-57
2021/07/09 03:27:55;;;;;;;5.88;2.63;;;18.90;85.80;;;;;;5106022;28;27355;-56
2021/07/09 03:30:41;;;;;;;4.28;2.35;;;18.90;85.70;;;;;;5105964;28;27391;-56
2021/07/09 03:33:26;;;;;;;2.80;2.13;;;18.90;85.60;;;;;;5105912;28;27365;-56
2021/07/09 03:36:11;;;;;;;2.92;2.30;;;18.90;85.70;;;;;;5105945;28;27417;-56
2021/07/09 03:38:56;;;;;;;6.45;2.58;;;18.80;85.70;;;;;;5105879;28;27335;-56
2021/07/09 03:41:41;;;;;;;5.15;2.45;;;18.80;85.80;;;;;;5104871;28;27991;-56
2021/07/09 03:44:26;;;;;;;3.72;2.50;;;18.80;85.70;;;;;;5106014;28;27372;-56
2021/07/09 03:47:10;;;;;;;4.65;2.38;;;18.80;85.80;;;;;;5106036;28;27325;-56
2021/07/09 03:49:54;;;;;;;3.08;2.50;;;18.80;85.90;;;;;;5105674;28;27344;-54
2021/07/09 03:52:39;;;;;;;4.50;2.47;;;18.80;85.90;;;;;;5105853;28;27472;-56
2021/07/09 03:55:23;;;;;;;3.90;2.55;;;18.80;86.10;;;;;;5105790;28;27485;-57
2021/07/09 03:58:07;;;;;;;7.60;2.42;;;18.80;86.10;;;;;;5101868;28;27448;-56
2021/07/09 04:00:52;;;;;;;3.03;2.40;;;18.80;86.20;;;;;;5101622;28;27401;-56
2021/07/09 04:03:36;;;;;;;2.60;2.13;;;18.80;86.20;;;;;;5105642;28;27457;-56
2021/07/09 04:06:21;;;;;;;5.60;2.35;;;18.80;86.30;;;;;;5105304;28;27428;-55
2021/07/09 04:09:06;;;;;;;5.82;2.53;;;18.80;86.40;;;;;;5104954;28;27469;-55
2021/07/09 04:11:50;;;;;;;5.57;2.15;;;18.80;86.50;;;;;;5105552;28;27313;-56
2021/07/09 04:14:34;;;;;;;5.60;2.97;;;18.80;86.70;;;;;;5105544;28;28004;-56
2021/07/09 04:17:19;;;;;;;4.68;2.13;;;18.80;86.60;;;;;;5105225;28;27321;-58
2021/07/09 04:20:04;;;;;;;5.35;2.15;;;18.80;86.80;;;;;;5101188;28;27321;-57
2021/07/09 04:22:49;;;;;;;6.85;2.40;;;18.80;86.80;;;;;;5104853;28;27379;-56
2021/07/09 04:25:34;;;;;;;1.90;1.80;;;18.80;86.70;;;;;;5105091;28;27320;-56
2021/07/09 04:28:18;;;;;;;7.50;2.13;;;18.80;86.80;;;;;;5101367;28;27364;-56
2021/07/09 04:31:03;;;;;;;5.43;2.35;;;18.80;86.90;;;;;;5105339;28;27325;-56
2021/07/09 04:33:50;;;;;;;4.28;2.00;;;18.80;87.10;;;;;;5105153;27;27385;-54
2021/07/09 04:36:34;;;;;;;5.43;1.98;;;18.80;87.10;;;;;;5104743;28;27860;-56
2021/07/09 04:39:19;;;;;;;2.90;1.92;;;18.80;87.00;;;;;;5104958;28;27320;-57
2021/07/09 04:42:07;;;;;;;3.67;1.88;;;18.80;87.00;;;;;;5104363;28;27649;-56
2021/07/09 04:44:51;;;;;;;3.53;1.90;;;18.80;87.10;;;;;;5105116;28;27432;-57
2021/07/09 04:47:36;;;;;;;2.55;1.75;;;18.80;87.20;;;;;;5105021;28;28062;-56
2021/07/09 04:50:21;;;;;;;4.00;2.10;;;18.80;87.20;;;;;;5103999;28;27455;-54
2021/07/09 04:53:06;;;;;;;2.33;1.80;;;18.80;87.50;;;;;;5105033;28;27481;-56
2021/07/09 04:55:50;;;;;;;4.47;2.15;;;18.80;87.30;;;;;;5104658;28;27420;-54
2021/07/09 04:58:35;;;;;;;4.38;2.25;;;18.80;87.30;;;;;;5104643;28;27421;-56
2021/07/09 05:01:20;;;;;;;2.75;2.05;;;18.80;87.40;;;;;;5104910;28;27587;-56
2021/07/09 05:04:06;;;;;;;4.18;1.80;;;18.80;87.30;;;;;;5104493;28;27757;-57
2021/07/09 05:06:50;;;;;;;6.60;2.10;;;18.80;87.30;;;;;;5104595;28;27411;-56
2021/07/09 05:09:35;;;;;;;3.65;2.00;;;18.80;87.10;;;;;;5104437;28;27427;-57
2021/07/09 05:12:19;;;;;;;3.53;1.90;;;18.80;87.20;;;;;;5104761;28;27414;-56
2021/07/09 05:15:04;;;;;;;2.95;1.83;;;18.90;87.30;;;;;;5104042;28;27334;-57
2021/07/09 05:17:49;;;;;;;2.20;2.00;;;18.80;87.30;;;;;;5103947;28;27342;-56
2021/07/09 05:20:35;;;;;;;2.70;1.88;;;18.80;87.30;;;;;;5102934;28;27506;-55
2021/07/09 05:23:19;;;;;;;3.08;1.50;;;18.90;87.50;;;;;;5104589;28;27362;-57
2021/07/09 05:26:04;;;;;;;2.40;2.05;;;18.90;87.60;;;;;;5104382;28;27367;-56
2021/07/09 05:28:48;;;;;;;2.20;1.90;;;18.90;87.80;;;;;;5104347;28;27375;-56
2021/07/09 05:31:33;;;;;;;5.00;2.10;;;18.90;87.80;;;;;;5104072;28;27377;-54
2021/07/09 05:34:18;;;;;;;3.88;1.90;;;18.90;88.00;;;;;;5103413;28;27348;-56
2021/07/09 05:37:03;;;;;;;2.10;1.85;;;18.90;88.00;;;;;;5103713;28;27309;-56
2021/07/09 05:39:47;;;;;;;1.98;1.77;;;18.90;88.10;;;;;;5104129;28;27328;-55
2021/07/09 05:42:32;;;;;;;1.90;1.80;;;18.90;88.10;;;;;;5101968;28;27446;-57
2021/07/09 05:45:17;;;;;;;3.10;2.10;;;18.90;88.30;;;;;;5105489;28;27395;-56
2021/07/09 05:48:01;;;;;;;3.17;2.10;;;18.90;89.10;;;;;;5107966;28;27382;-56
2021/07/09 05:50:46;;;;;;;2.17;1.85;;;18.90;89.30;;;;;;5104322;28;27312;-57
2021/07/09 05:53:31;;;;;;;3.05;2.22;;;19.00;89.70;;;;;;5107547;28;27333;-56
2021/07/09 05:56:16;;;;;;;2.85;2.25;;;19.00;90.30;;;;;;5107542;28;27362;-57
2021/07/09 05:59:03;;;;;;;3.72;2.22;;;19.00;90.10;;;;;;5106983;28;27403;-56
2021/07/09 06:01:48;;;;;;;2.20;2.00;;;19.10;90.20;;;;;;5107552;28;27321;-57
2021/07/09 06:04:32;;;;;;;2.28;2.08;;;19.10;90.40;;;;;;5107631;28;27339;-55
2021/07/09 06:07:16;;;;;;;2.38;1.80;;;19.10;89.80;;;;;;5104276;28;27518;-55
2021/07/09 06:10:01;;;;;;;3.97;2.45;;;19.10;88.80;;;;;;5107613;28;27371;-57
2021/07/09 06:12:46;;;;;;;3.20;2.38;;;19.10;88.70;;;;;;5107551;28;27320;-57
2021/07/09 06:15:31;;;;;;;2.22;2.05;;;19.10;89.00;;;;;;5106399;28;27402;-55
2021/07/09 06:18:15;;;;;;;4.40;2.25;;;19.10;89.00;;;;;;5107171;28;27391;-59
2021/07/09 06:21:00;;;;;;;2.90;2.45;;;19.10;89.20;;;;;;5107049;28;27410;-56
2021/07/09 06:23:45;;;;;;;4.53;2.35;;;19.10;90.10;;;;;;5106876;28;26831;-57
2021/07/09 06:26:29;;;;;;;2.28;2.08;;;19.10;89.50;;;;;;5107276;28;27465;-56
2021/07/09 06:29:15;;;;;;;2.88;2.40;;;19.10;90.10;;;;;;5106986;28;27485;-57
2021/07/09 06:32:00;;;;;;;5.68;3.08;;;19.10;89.40;;;;;;5107197;28;27469;-56
2021/07/09 06:34:44;;;;;;;3.22;2.92;;;19.10;89.80;;;;;;5107187;28;27403;-57
2021/07/09 06:37:29;;;;;;;3.72;3.08;;;19.20;90.30;;;;;;5106833;28;27427;-57
2021/07/09 06:40:14;;;;;;;3.35;3.05;;;19.20;90.70;;;;;;5107030;28;27528;-57
2021/07/09 06:42:59;;;;;;;4.80;3.17;;;19.20;90.50;;;;;;5106467;28;26910;-57
2021/07/09 06:45:44;;;;;;;3.97;2.80;;;19.20;90.30;;;;;;5106738;28;27331;-56
2021/07/09 06:48:28;;;;;;;4.38;2.90;;;19.20;90.20;;;;;;5103623;28;27465;-57
2021/07/09 06:51:13;;;;;;;3.88;3.10;;;19.20;90.00;;;;;;5106269;28;27469;-57
2021/07/09 06:53:58;;;;;;;6.03;3.25;;;19.30;90.00;;;;;;5106404;28;27475;-57
2021/07/09 06:56:43;;;;;;;3.50;3.20;;;19.30;90.20;;;;;;5105165;27;27453;-57
2021/07/09 06:59:28;;;;;;;6.40;3.92;;;19.30;90.20;;;;;;5106871;28;27466;-57
2021/07/09 07:02:13;;;;;;;3.75;3.28;;;19.40;90.20;;;;;;5106462;28;27442;-59
2021/07/09 07:04:57;;;;;;;3.22;2.90;;;19.40;90.30;;;;;;5106788;28;27480;-57
2021/07/09 07:07:42;;;;;;;4.18;3.60;;;19.40;90.20;;;;;;5105820;28;27468;-57
2021/07/09 07:10:27;;;;;;;3.92;3.50;;;19.50;90.30;;;;;;5106541;28;27956;-57
2021/07/09 07:13:12;;;;;;;3.10;2.80;;;19.50;90.40;;;;;;5106501;28;27488;-57
2021/07/09 07:15:58;;;;;;;5.78;2.97;;;19.60;90.60;;;;;;5106307;28;27454;-57
2021/07/09 07:18:43;;;;;;;4.15;3.22;;;19.60;90.60;;;;;;5105942;28;27457;-58
2021/07/09 07:21:28;;;;;;;5.57;3.28;;;19.70;90.70;;;;;;5106268;28;27438;-58
2021/07/09 07:24:13;;;;;;;3.28;2.80;;;19.70;90.70;;;;;;5106074;28;27474;-57
2021/07/09 07:26:58;;;;;;;5.18;3.83;;;19.80;91.10;;;;;;5105346;28;27422;-58
2021/07/09 07:29:43;;;;;;;4.03;3.00;;;19.80;84.40;;;;;;5106286;28;27382;-59
2021/07/09 07:32:28;;;;;;;9.38;3.38;;;19.80;84.00;;;;;;5105915;28;27411;-59
2021/07/09 07:35:13;;;;;;;4.50;3.30;;;19.90;86.30;;;;;;5105839;28;27427;-59
2021/07/09 07:37:58;;;;;;;3.63;3.15;;;20.00;88.10;;;;;;5105924;28;27420;-59
2021/07/09 07:40:43;;;;;;;4.28;3.40;;;20.10;89.20;;;;;;5105387;28;27394;-59
2021/07/09 07:43:28;;;;;;;3.80;3.50;;;20.20;89.90;;;;;;5106057;28;27478;-59
2021/07/09 07:46:13;;;;;;;3.85;3.22;;;20.30;90.20;;;;;;5105703;28;27344;-59
2021/07/09 07:48:58;;;;;;;4.72;3.50;;;20.30;90.30;;;;;;5105896;28;27417;-59
2021/07/09 07:51:43;;;;;;;3.22;2.92;;;20.40;90.40;;;;;;5106051;28;27444;-59
2021/07/09 07:54:29;;;;;;;3.40;3.10;;;20.40;90.00;;;;;;5105921;28;28008;-58
2021/07/09 07:57:14;;;;;;;3.15;2.85;;;20.50;90.30;;;;;;5105605;28;27513;-59
2021/07/09 07:59:59;;;;;;;6.18;3.28;;;20.70;90.40;;;;;;5105904;28;27539;-59
2021/07/09 08:02:43;;;;;;;4.07;3.20;;;20.80;90.50;;;;;;5105224;28;27427;-59
2021/07/09 08:05:28;;;;;;;5.95;3.38;;;21.00;90.20;;;;;;5105952;28;27484;-59
2021/07/09 08:08:13;;;;;;;6.75;3.40;;;21.20;90.10;;;;;;5104844;27;27429;-59
2021/07/09 08:10:58;;;;;;;6.93;3.50;;;21.30;90.30;;;;;;5105771;28;27406;-59
2021/07/09 08:13:43;;;;;;;2.85;2.65;;;21.50;90.30;;;;;;5105009;28;27406;-59
2021/07/09 08:16:28;;;;;;;4.05;3.10;;;21.70;90.00;;;;;;5105272;28;27414;-59
2021/07/09 08:19:13;;;;;;;3.40;3.10;;;21.80;89.50;;;;;;5105506;28;27403;-59
2021/07/09 08:21:57;;;;;;;4.32;3.05;;;21.90;88.80;;;;;;5105274;28;27513;-59
2021/07/09 08:24:42;;;;;;;3.63;2.80;;;22.00;88.30;;;;;;5105171;28;27458;-59
2021/07/09 08:27:26;;;;;;;2.97;2.72;;;22.30;87.60;;;;;;5101857;28;27454;-59
2021/07/09 08:30:12;;;;;;;4.20;2.80;;;22.70;85.90;;;;;;5105103;28;27437;-60
2021/07/09 08:32:56;;;;;;;5.53;3.17;;;23.00;84.60;;;;;;5105400;28;27460;-59
2021/07/09 08:35:41;;;;;;;2.78;2.58;;;23.40;84.20;;;;;;5105421;28;27384;-60
2021/07/09 08:38:26;;;;;;;4.57;2.33;;;23.70;83.80;;;;;;5105237;28;27401;-60
2021/07/09 08:41:14;;;;;;;5.30;2.90;;;23.90;83.00;;;;;;5104467;28;27480;-59
2021/07/09 08:43:59;;;;;;;3.80;2.75;;;23.80;82.30;;;;;;5104951;28;27403;-59
2021/07/09 08:46:43;;;;;;;3.58;2.95;;;23.90;82.80;;;;;;5105120;28;27456;-59
2021/07/09 08:49:28;;;;;;;3.63;2.67;;;23.80;82.80;;;;;;5104714;28;27971;-59
2021/07/09 08:52:13;;;;;;;4.32;2.40;;;23.80;83.00;;;;;;5105068;28;27426;-59
2021/07/09 08:54:57;;;;;;;4.10;2.75;;;23.70;83.20;;;;;;5105059;28;27411;-60
2021/07/09 08:57:42;;;;;;;4.35;2.70;;;23.70;83.70;;;;;;5104659;28;27405;-60
2021/07/09 09:00:27;;;;;;;3.58;3.03;;;23.70;83.30;;;;;;5104876;28;27399;-60
2021/07/09 09:03:16;;;;;;;3.20;2.90;;;23.70;83.30;;;;;;5104920;28;27472;-59
2021/07/09 09:06:01;;;;;;;3.60;2.63;;;23.60;83.70;;;;;;5104993;28;27386;-59
2021/07/09 09:08:45;;;;;;;4.45;3.10;;;23.60;84.00;;;;;;5104060;28;27390;-60
2021/07/09 09:11:32;;;;;;;3.72;2.40;;;23.50;84.60;;;;;;5103865;28;27961;-60
2021/07/09 09:14:23;;;;;;;4.38;2.88;;;23.60;85.20;;;;;;5100502;28;27403;-60
2021/07/09 09:17:29;;;;;;;5.07;3.13;;;24.00;85.00;;;;;;5104472;28;27438;-60
2021/07/09 09:20:16;;;;;;;3.63;3.10;;;24.50;83.50;;;;;;5105488;27;27438;-60
2021/07/09 09:23:06;;;;;;;5.10;2.92;;;24.80;82.50;;;;;;5104512;28;27352;-61
2021/07/09 09:25:55;;;;;;;5.43;3.13;;;25.00;82.10;;;;;;5107340;28;27543;-61
2021/07/09 09:28:45;;;;;;;4.15;2.97;;;25.00;81.10;;;;;;5108065;28;27407;-60
2021/07/09 09:31:36;;;;;;;4.05;3.17;;;25.00;81.10;;;;;;5093018;28;27321;-66
2021/07/09 09:34:56;;;;;;;4.90;3.15;;;25.00;79.90;;;;;;5107246;28;27395;-60
2021/07/09 09:38:05;;;;;;;5.38;3.20;;;24.90;81.20;;;;;;5098267;28;27526;-60
2021/07/09 09:40:59;;;;;;;3.78;3.30;;;24.80;81.10;;;;;;5090769;28;27474;-60
2021/07/09 09:43:47;;;;;;;5.28;3.75;;;24.80;80.70;;;;;;5107831;28;27407;-60
2021/07/09 09:46:34;;;;;;;6.00;3.40;;;24.70;80.10;;;;;;5107020;28;27409;-62
2021/07/09 09:49:35;;;;;;;6.03;3.65;;;24.60;79.90;;;;;;5107685;28;27416;-60
2021/07/09 09:52:43;;;;;;;5.05;3.53;;;24.40;80.90;;;;;;5103731;28;27426;-61
2021/07/09 09:55:33;;;;;;;4.10;3.70;;;24.20;80.90;;;;;;5106999;28;27343;-60
2021/07/09 09:58:25;;;;;;;5.45;3.75;;;24.10;81.00;;;;;;5107772;28;27852;-60
2021/07/09 10:01:32;;;;;;;5.00;3.78;;;24.40;80.60;;;;;;5094027;28;27616;-61
2021/07/09 10:04:23;;;;;;;6.90;3.65;;;24.70;79.20;;;;;;5107171;28;27467;-61
2021/07/09 10:07:11;;;;;;;4.68;3.90;;;24.80;79.00;;;;;;5089047;28;27352;-62
2021/07/09 10:10:05;;;;;;;4.25;3.95;;;24.70;79.10;;;;;;5107738;28;27482;-61
2021/07/09 10:12:53;;;;;;;6.55;3.83;;;24.50;78.60;;;;;;5106818;28;27524;-60
2021/07/09 10:15:44;;;;;;;5.00;4.00;;;24.40;79.10;;;;;;5092761;28;27438;-60
2021/07/09 10:18:33;;;;;;;6.40;3.78;;;24.20;79.10;;;;;;5107340;28;27309;-60
2021/07/09 10:21:20;;;;;;;5.97;4.10;;;24.10;80.10;;;;;;5092404;28;27461;-61
2021/07/09 10:24:09;;;;;;;5.13;3.85;;;24.20;79.80;;;;;;5107504;28;27550;-60
2021/07/09 10:27:27;;;;;;;4.72;3.70;;;24.50;79.50;;;;;;5104107;28;27466;-59
2021/07/09 10:30:16;;;;;;;7.68;3.55;;;24.90;79.00;;;;;;5106302;28;27480;-59
2021/07/09 10:33:25;;;;;;;6.38;3.20;;;25.40;79.20;;;;;;5103320;28;27371;-63
2021/07/09 10:36:36;;;;;;;7.57;3.88;;;25.70;79.00;;;;;;5106419;28;27509;-61
2021/07/09 10:39:35;;;;;;;4.63;3.47;;;26.10;77.30;;;;;;5106314;28;27371;-61
2021/07/09 10:42:31;;;;;;;5.10;3.20;;;26.30;76.80;;;;;;5105844;28;27480;-60
2021/07/09 10:45:31;;;;;;;5.15;3.15;;;26.40;77.00;;;;;;5102926;28;27365;-61
2021/07/09 10:48:19;;;;;;;9.32;3.65;;;26.30;76.40;;;;;;5107228;28;27421;-60
2021/07/09 10:51:15;;;;;;;5.43;3.38;;;26.20;77.20;;;;;;5092187;28;26937;-61
2021/07/09 10:54:26;;;;;;;5.35;3.30;;;26.00;76.80;;;;;;5106762;28;27381;-61
2021/07/09 10:57:30;;;;;;;8.82;3.67;;;25.80;75.90;;;;;;5106278;28;27352;-59
2021/07/09 11:00:46;;;;;;;7.47;3.50;;;25.60;75.70;;;;;;5106299;28;27383;-61
2021/07/09 11:03:49;;;;;;;5.30;3.40;;;25.40;75.10;;;;;;5106950;28;27326;-60
2021/07/09 11:06:46;;;;;;;5.72;3.55;;;25.20;74.00;;;;;;5106631;28;27456;-60
2021/07/09 11:09:43;;;;;;;3.60;3.17;;;25.20;74.60;;;;;;5105762;28;27849;-60
2021/07/09 11:12:37;;;;;;;3.47;2.90;;;25.40;75.20;;;;;;5091746;28;27475;-60
2021/07/09 11:15:25;;;;;;;3.53;3.10;;;25.80;75.40;;;;;;5105741;28;27390;-61
2021/07/09 11:18:20;;;;;;;2.90;2.65;;;26.20;74.90;;;;;;5106285;28;27415;-61
2021/07/09 11:21:16;;;;;;;4.22;2.78;;;26.60;76.10;;;;;;5105440;28;27464;-60
2021/07/09 11:24:27;;;;;;;4.50;2.63;;;26.90;76.60;;;;;;5106276;28;27647;-61
2021/07/09 11:27:17;;;;;;;4.22;2.38;;;27.10;60.50;;;;;;5106031;28;27311;-60
2021/07/09 11:30:12;;;;;;;5.10;2.80;;;27.10;58.80;;;;;;5106161;28;27467;-62
2021/07/09 11:33:04;;;;;;;4.50;2.47;;;27.10;63.10;;;;;;5105985;28;27568;-59
2021/07/09 11:35:53;;;;;;;3.53;2.60;;;27.30;67.40;;;;;;5092307;28;27401;-59
2021/07/09 11:39:07;;;;;;;3.42;2.28;;;27.50;70.80;;;;;;5087964;28;27418;-61
2021/07/09 11:42:20;;;;;;;3.15;2.72;;;27.80;73.50;;;;;;5103982;28;27599;-59
2021/07/09 11:45:12;;;;;;;2.47;2.15;;;27.90;73.10;;;;;;5106320;28;27884;-59
2021/07/09 11:48:03;;;;;;;2.17;2.05;;;27.90;73.30;;;;;;5105485;28;27312;-61
2021/07/09 11:50:55;;;;;;;3.60;2.63;;;27.70;73.60;;;;;;5105615;28;27412;-59
2021/07/09 11:53:44;;;;;;;2.65;2.40;;;27.60;72.70;;;;;;5105493;28;27488;-59
2021/07/09 11:56:44;;;;;;;2.40;2.20;;;27.70;72.30;;;;;;5107012;28;28084;-59
2021/07/09 11:59:40;;;;;;;3.33;2.20;;;27.90;73.00;;;;;;5105313;28;27485;-60
2021/07/09 12:02:33;;;;;;;3.58;1.98;;;28.10;73.90;;;;;;5105171;28;27441;-59
2021/07/09 12:05:32;;;;;;;2.40;2.03;;;28.30;73.60;;;;;;5087749;28;27397;-59
2021/07/09 12:08:37;;;;;;;2.38;2.03;;;28.50;74.60;;;;;;5087480;28;27493;-60
2021/07/09 12:11:33;;;;;;;2.65;1.83;;;28.70;73.70;;;;;;5105168;28;27427;-59
2021/07/09 12:14:26;;;;;;;2.72;2.03;;;28.70;74.60;;;;;;5102282;28;27416;-61
2021/07/09 12:17:19;;;;;;;2.42;2.22;;;28.70;73.50;;;;;;5104498;28;27415;-60
2021/07/09 12:20:48;;;;;;;2.13;1.77;;;28.70;74.40;;;;;;5101587;28;27474;-61
2021/07/09 12:23:39;;;;;;;7.85;2.63;;;28.50;75.40;;;;;;5104917;28;27482;-60
2021/07/09 12:26:35;;;;;;;3.67;1.92;;;28.50;75.00;;;;;;5101280;28;27474;-59
2021/07/09 12:29:34;;;;;;;3.58;1.95;;;28.60;75.60;;;;;;5105451;28;27492;-60
2021/07/09 12:32:28;;;;;;;2.35;1.90;;;28.80;76.30;;;;;;5101136;28;27400;-60
2021/07/09 12:35:21;;;;;;;2.45;2.00;;;28.90;75.90;;;;;;5090733;28;27474;-59
2021/07/09 12:38:10;;;;;;;2.80;2.50;;;29.10;76.20;;;;;;5104421;28;27419;-58
2021/07/09 12:41:08;;;;;;;3.25;1.80;;;29.30;75.70;;;;;;5101112;28;27332;-60
2021/07/09 12:43:56;;;;;;;2.40;1.90;;;29.40;75.60;;;;;;5104577;28;27864;-61
2021/07/09 12:46:45;;;;;;;2.25;1.92;;;29.50;76.10;;;;;;5089877;28;27479;-60
2021/07/09 12:49:39;;;;;;;2.50;1.75;;;29.60;76.10;;;;;;5101343;28;27379;-60
2021/07/09 12:52:37;;;;;;;2.00;1.80;;;29.70;74.90;;;;;;5104238;28;27327;-62
2021/07/09 12:55:45;;;;;;;2.30;1.63;;;29.70;74.90;;;;;;5076990;28;27943;-59
2021/07/09 12:58:35;;;;;;;3.95;1.60;;;29.60;74.90;;;;;;5074119;28;27466;-59
2021/07/09 13:01:40;;;;;;;2.38;1.80;;;29.60;75.10;;;;;;5104258;28;27336;-59
2021/07/09 13:04:57;;;;;;;2.75;2.00;;;29.60;74.70;;;;;;5100768;28;27419;-60
2021/07/09 13:07:47;;;;;;;2.22;1.88;;;29.50;73.80;;;;;;5086385;28;27414;-60
2021/07/09 13:10:41;;;;;;;2.47;2.17;;;29.50;74.50;;;;;;5101358;28;27378;-60
2021/07/09 13:13:37;;;;;;;3.35;1.90;;;29.40;75.30;;;;;;5103838;28;27501;-61
2021/07/09 13:16:33;;;;;;;2.80;1.75;;;29.40;76.70;;;;;;5073859;28;27439;-60
2021/07/09 13:19:40;;;;;;;2.20;1.70;;;29.40;76.40;;;;;;5086727;28;27485;-59
2021/07/09 13:23:12;;;;;;;3.17;1.77;;;29.40;76.00;;;;;;5089797;28;27347;-60
2021/07/09 13:26:20;;;;;;;3.53;1.77;;;29.40;76.10;;;;;;5094345;28;27478;-59
2021/07/09 13:29:21;;;;;;;3.17;1.70;;;29.30;75.10;;;;;;5103962;28;27355;-61
2021/07/09 13:32:11;;;;;;;3.15;1.90;;;29.30;74.10;;;;;;5103589;28;27935;-59
2021/07/09 13:35:09;;;;;;;2.75;1.98;;;29.30;75.20;;;;;;5104357;28;27402;-59
2021/07/09 13:38:01;;;;;;;2.58;1.50;;;29.30;75.00;;;;;;5103659;28;27411;-59
2021/07/09 13:41:01;;;;;;;1.98;1.75;;;29.20;73.80;;;;;;5102971;28;27468;-59
2021/07/09 13:43:57;;;;;;;3.28;1.80;;;29.00;71.90;;;;;;5072947;28;27460;-59
2021/07/09 13:46:50;;;;;;;3.85;1.95;;;28.80;70.90;;;;;;5100412;28;27537;-60
2021/07/09 13:49:46;;;;;;;2.28;2.08;;;28.70;71.90;;;;;;5087777;28;27393;-59
2021/07/09 13:52:37;;;;;;;2.15;1.92;;;28.60;72.90;;;;;;5089358;28;27422;-59
2021/07/09 13:55:43;;;;;;;2.75;2.08;;;28.50;72.70;;;;;;5088566;28;27873;-59
2021/07/09 13:58:33;;;;;;;2.60;2.10;;;28.50;73.10;;;;;;5090053;28;27398;-59
2021/07/09 14:01:40;;;;;;;3.78;2.03;;;28.40;71.60;;;;;;5100017;28;27435;-61
2021/07/09 14:04:34;;;;;;;2.92;2.03;;;28.30;70.40;;;;;;5090845;28;27370;-60
2021/07/09 14:07:28;;;;;;;2.40;2.20;;;28.10;70.70;;;;;;5088713;28;27833;-59
2021/07/09 14:10:21;;;;;;;1.92;1.83;;;27.90;69.90;;;;;;5076815;28;27325;-62
2021/07/09 14:13:12;;;;;;;5.22;1.98;;;27.80;69.30;;;;;;5089318;28;27439;-59
2021/07/09 14:16:02;;;;;;;4.03;2.28;;;27.60;67.90;;;;;;5106616;28;27332;-59
2021/07/09 14:19:01;;;;;;;2.63;2.25;;;27.50;68.10;;;;;;5075930;28;27475;-60
2021/07/09 14:21:58;;;;;;;2.47;2.28;;;27.40;68.20;;;;;;5094124;28;27414;-59
2021/07/09 14:24:49;;;;;;;3.28;2.22;;;27.30;69.10;;;;;;5107310;28;27367;-60
2021/07/09 14:27:41;;;;;;;2.65;2.15;;;27.30;69.30;;;;;;5103214;28;27401;-59
2021/07/09 14:30:33;;;;;;;3.13;2.00;;;27.30;69.30;;;;;;5092196;28;27493;-59
2021/07/09 14:33:31;;;;;;;3.80;2.42;;;27.30;68.80;;;;;;5105832;28;27482;-59
2021/07/09 14:36:22;;;;;;;3.08;2.40;;;27.30;67.70;;;;;;5106403;28;27466;-60
2021/07/09 14:39:15;;;;;;;3.45;2.10;;;27.20;66.80;;;;;;5089653;28;27517;-59
2021/07/09 14:42:10;;;;;;;3.22;2.15;;;27.20;66.10;;;;;;5105757;28;27363;-59